Time;durP1;ratioP1;P1;durP2;ratioP2;P2;SDS_P1;SDS_P2;PMS_P1;PMS_P2;Temp;Humidity;BMP_temperature;BMP_pressure;BME280_temperature;BME280_humidity;BME280_pressure;Samples;Min_cycle;Max_cycle;Signal;HPM_P1;HPM_P2
2022/08/25 00:00:08;;;;;;;;;11.00;11.00;;;;;;;;5100911;27;45306;-71
2022/08/25 00:02:34;;;;;;;;;14.33;14.33;;;;;;;;5099803;27;45313;-71
2022/08/25 00:04:59;;;;;;;;;10.00;10.00;;;;;;;;5100900;27;45470;-71
2022/08/25 00:07:25;;;;;;;;;12.67;12.67;;;;;;;;5100450;27;45820;-72
2022/08/25 00:09:50;;;;;;;;;12.00;12.00;;;;;;;;5100608;27;45208;-71
2022/08/25 00:12:15;;;;;;;;;13.00;12.00;;;;;;;;5100769;27;45270;-72
2022/08/25 00:14:42;;;;;;;;;14.00;14.00;;;;;;;;5100835;27;45461;-71
2022/08/25 00:17:07;;;;;;;;;13.33;13.00;;;;;;;;5100132;27;47377;-71
2022/08/25 00:19:35;;;;;;;;;15.67;12.67;;;;;;;;5089074;27;45204;-71
2022/08/25 00:22:01;;;;;;;;;14.33;14.33;;;;;;;;5079822;28;45616;-71
2022/08/25 00:24:26;;;;;;;;;12.33;12.33;;;;;;;;5079937;28;45613;-71
2022/08/25 00:26:53;;;;;;;;;14.00;13.00;;;;;;;;5079825;28;47204;-72
2022/08/25 00:29:19;;;;;;;;;13.33;12.67;;;;;;;;5078925;28;45376;-72
2022/08/25 00:31:45;;;;;;;;;16.00;14.67;;;;;;;;5079782;28;45354;-72
2022/08/25 00:34:22;;;;;;;;;13.00;12.00;;;;;;;;5079922;28;45480;-71
2022/08/25 00:36:50;;;;;;;;;15.33;13.33;;;;;;;;5099062;27;45432;-72
2022/08/25 00:39:16;;;;;;;;;14.00;13.67;;;;;;;;5100113;27;45360;-72
2022/08/25 00:41:42;;;;;;;;;17.67;14.00;;;;;;;;5100124;27;45393;-72
2022/08/25 00:44:09;;;;;;;;;14.00;13.00;;;;;;;;5100251;27;45356;-72
2022/08/25 00:46:36;;;;;;;;;12.67;11.67;;;;;;;;5099947;27;45727;-72
2022/08/25 00:49:04;;;;;;;;;12.00;12.00;;;;;;;;5099946;27;45517;-72
2022/08/25 00:51:38;;;;;;;;;13.33;12.33;;;;;;;;5098908;27;45395;-72
2022/08/25 00:54:04;;;;;;;;;13.33;12.33;;;;;;;;5099164;27;45384;-73
2022/08/25 00:56:30;;;;;;;;;14.33;14.33;;;;;;;;5099642;27;46039;-72
2022/08/25 00:58:55;;;;;;;;;17.00;15.33;;;;;;;;5099640;27;45425;-72
2022/08/25 01:01:21;;;;;;;;;19.33;17.67;;;;;;;;5099757;27;45311;-72
2022/08/25 01:03:46;;;;;;;;;17.33;16.00;;;;;;;;5099941;27;45530;-72
2022/08/25 01:06:11;;;;;;;;;17.00;16.00;;;;;;;;5099563;27;45291;-72
2022/08/25 01:08:37;;;;;;;;;14.33;13.00;;;;;;;;5098384;27;45416;-72
2022/08/25 01:11:04;;;;;;;;;16.33;15.00;;;;;;;;5099953;27;45377;-72
2022/08/25 01:13:44;;;;;;;;;16.00;16.00;;;;;;;;5099811;27;45259;-72
2022/08/25 01:16:10;;;;;;;;;16.00;16.00;;;;;;;;5099065;27;46258;-72
2022/08/25 01:18:49;;;;;;;;;18.00;14.33;;;;;;;;5099457;27;45280;-72
2022/08/25 01:21:16;;;;;;;;;15.33;15.00;;;;;;;;5099383;27;45282;-72
2022/08/25 01:23:42;;;;;;;;;17.00;15.00;;;;;;;;5099523;27;45202;-72
2022/08/25 01:26:09;;;;;;;;;19.00;17.00;;;;;;;;5098177;27;45474;-72
2022/08/25 01:28:35;;;;;;;;;12.00;12.00;;;;;;;;5099478;27;45293;-72
2022/08/25 01:31:01;;;;;;;;;17.67;17.67;;;;;;;;5099355;27;45324;-72
2022/08/25 01:33:26;;;;;;;;;17.67;14.67;;;;;;;;5099674;27;45365;-72
2022/08/25 01:35:51;;;;;;;;;9.67;9.67;;;;;;;;5099001;27;46725;-72
2022/08/25 01:38:17;;;;;;;;;15.67;13.67;;;;;;;;5099146;27;45436;-72
2022/08/25 01:40:42;;;;;;;;;16.00;15.67;;;;;;;;5099236;27;45355;-72
2022/08/25 01:43:13;;;;;;;;;14.67;14.67;;;;;;;;5098275;27;45432;-72
2022/08/25 01:45:40;;;;;;;;;16.67;16.33;;;;;;;;5098916;27;45545;-71
2022/08/25 01:48:06;;;;;;;;;17.00;15.00;;;;;;;;5098998;27;45382;-71
2022/08/25 01:50:32;;;;;;;;;14.00;14.00;;;;;;;;5099167;27;45315;-71
2022/08/25 01:53:01;;;;;;;;;17.00;15.00;;;;;;;;5099232;27;45379;-72
2022/08/25 01:55:27;;;;;;;;;18.67;16.33;;;;;;;;5098857;27;46591;-72
2022/08/25 01:57:52;;;;;;;;;15.67;13.67;;;;;;;;5097780;27;45282;-72
2022/08/25 02:00:18;;;;;;;;;16.67;16.67;;;;;;;;5099019;27;45443;-72
2022/08/25 02:02:43;;;;;;;;;17.00;17.00;;;;;;;;5098694;27;45235;-72
2022/08/25 02:05:10;;;;;;;;;21.33;19.33;;;;;;;;5098769;27;45343;-72
2022/08/25 02:07:35;;;;;;;;;15.67;15.67;;;;;;;;5098601;27;45442;-71
2022/08/25 02:10:03;;;;;;;;;23.00;19.67;;;;;;;;5098515;27;45402;-72
2022/08/25 02:12:30;;;;;;;;;21.00;19.00;;;;;;;;5098144;27;45327;-72
2022/08/25 02:14:56;;;;;;;;;27.67;23.67;;;;;;;;5098395;27;46548;-72
2022/08/25 02:17:21;;;;;;;;;24.00;20.67;;;;;;;;5098429;27;45363;-72
2022/08/25 02:19:46;;;;;;;;;16.67;16.67;;;;;;;;5098775;27;45267;-72
2022/08/25 02:22:11;;;;;;;;;22.67;21.67;;;;;;;;5098569;27;45431;-72
2022/08/25 02:24:37;;;;;;;;;21.33;20.67;;;;;;;;5098405;27;46469;-72
2022/08/25 02:27:02;;;;;;;;;19.33;18.33;;;;;;;;5098385;27;45423;-72
2022/08/25 02:29:28;;;;;;;;;19.67;15.67;;;;;;;;5098561;27;45272;-72
2022/08/25 02:31:53;;;;;;;;;19.00;17.67;;;;;;;;5097548;27;46001;-71
2022/08/25 02:34:18;;;;;;;;;18.67;18.67;;;;;;;;5098225;27;46443;-71
2022/08/25 02:36:43;;;;;;;;;23.33;18.00;;;;;;;;5098116;27;45275;-71
2022/08/25 02:39:09;;;;;;;;;21.33;18.67;;;;;;;;5098437;27;45229;-72
2022/08/25 02:41:35;;;;;;;;;18.67;16.67;;;;;;;;5098645;27;45287;-71
2022/08/25 02:44:02;;;;;;;;;22.67;20.00;;;;;;;;5097920;27;46497;-71
2022/08/25 02:46:28;;;;;;;;;18.00;18.00;;;;;;;;5097188;27;45545;-71
2022/08/25 02:48:54;;;;;;;;;18.67;16.67;;;;;;;;5098336;27;45553;-72
2022/08/25 02:51:20;;;;;;;;;19.67;18.00;;;;;;;;5098350;27;45177;-71
2022/08/25 02:53:46;;;;;;;;;20.67;18.67;;;;;;;;5097773;27;46629;-72
2022/08/25 02:56:12;;;;;;;;;23.67;23.00;;;;;;;;5097920;27;45403;-72
2022/08/25 02:58:38;;;;;;;;;23.33;22.00;;;;;;;;5098057;27;45458;-72
2022/08/25 03:01:04;;;;;;;;;21.67;21.33;;;;;;;;5098202;27;45344;-72
2022/08/25 03:03:30;;;;;;;;;20.33;20.33;;;;;;;;5096708;27;46720;-71
2022/08/25 03:05:56;;;;;;;;;22.00;18.67;;;;;;;;5097999;27;45264;-72
2022/08/25 03:08:22;;;;;;;;;22.33;22.33;;;;;;;;5097777;27;45390;-72
2022/08/25 03:10:47;;;;;;;;;23.00;19.33;;;;;;;;5098091;27;45343;-72
2022/08/25 03:13:12;;;;;;;;;24.33;21.00;;;;;;;;5097905;27;46138;-72
2022/08/25 03:15:38;;;;;;;;;20.33;20.33;;;;;;;;5099444;27;45553;-72
2022/08/25 03:18:04;;;;;;;;;18.67;18.67;;;;;;;;5100135;27;45788;-72
2022/08/25 03:20:29;;;;;;;;;22.00;20.33;;;;;;;;5081161;28;45387;-72
2022/08/25 03:22:55;;;;;;;;;21.33;19.00;;;;;;;;5080524;28;46024;-72
2022/08/25 03:28:05;;;;;;;;;20.67;19.67;;;;;;;;5080982;28;45383;-71
2022/08/25 03:30:30;;;;;;;;;18.00;17.67;;;;;;;;5081025;28;45390;-71
2022/08/25 03:32:56;;;;;;;;;22.33;18.00;;;;;;;;5080541;28;46456;-71
2022/08/25 03:35:21;;;;;;;;;22.33;17.67;;;;;;;;5086791;27;45315;-71
2022/08/25 03:37:46;;;;;;;;;20.67;19.33;;;;;;;;5101082;27;45208;-71
2022/08/25 03:40:13;;;;;;;;;19.67;19.67;;;;;;;;5101506;27;45204;-71
2022/08/25 03:42:43;;;;;;;;;19.67;18.00;;;;;;;;5100787;27;46565;-71
2022/08/25 03:45:10;;;;;;;;;19.33;18.67;;;;;;;;5100855;27;45332;-71
2022/08/25 03:47:35;;;;;;;;;17.00;16.33;;;;;;;;5100950;27;45237;-71
2022/08/25 03:50:01;;;;;;;;;29.67;25.33;;;;;;;;5101155;27;45745;-71
2022/08/25 03:52:26;;;;;;;;;23.00;22.67;;;;;;;;5099900;27;46514;-71
2022/08/25 03:54:51;;;;;;;;;24.33;22.33;;;;;;;;5099978;27;45161;-72
2022/08/25 03:57:19;;;;;;;;;20.33;20.33;;;;;;;;5100917;27;45423;-72
2022/08/25 03:59:44;;;;;;;;;20.67;20.33;;;;;;;;5101035;27;45540;-72
2022/08/25 04:02:10;;;;;;;;;21.00;21.00;;;;;;;;5100469;27;45455;-72
2022/08/25 04:04:35;;;;;;;;;26.33;22.33;;;;;;;;5100777;27;45427;-72
2022/08/25 04:07:01;;;;;;;;;19.67;19.67;;;;;;;;5100674;27;45446;-71
2022/08/25 04:09:26;;;;;;;;;20.33;20.33;;;;;;;;5099759;27;45544;-72
2022/08/25 04:11:51;;;;;;;;;19.67;17.33;;;;;;;;5100436;27;46383;-71
2022/08/25 04:14:17;;;;;;;;;19.67;17.67;;;;;;;;5100488;27;45406;-72
2022/08/25 04:16:43;;;;;;;;;20.00;19.67;;;;;;;;5100475;27;45305;-72
2022/08/25 04:19:09;;;;;;;;;19.67;19.67;;;;;;;;5100650;27;45358;-71
2022/08/25 04:21:35;;;;;;;;;18.00;18.00;;;;;;;;5100154;27;46616;-72
2022/08/25 04:24:00;;;;;;;;;22.33;20.33;;;;;;;;5100124;27;45352;-72
2022/08/25 04:26:28;;;;;;;;;21.67;21.33;;;;;;;;5099449;27;45366;-72
2022/08/25 04:28:53;;;;;;;;;26.67;23.33;;;;;;;;5100626;27;45196;-72
2022/08/25 04:31:20;;;;;;;;;20.33;19.67;;;;;;;;5100082;27;45299;-71
2022/08/25 04:33:46;;;;;;;;;33.00;28.00;;;;;;;;5100210;27;45350;-71
2022/08/25 04:36:12;;;;;;;;;24.67;22.67;;;;;;;;5100248;27;45418;-71
2022/08/25 04:38:38;;;;;;;;;26.33;22.67;;;;;;;;5100261;27;45382;-72
2022/08/25 04:41:04;;;;;;;;;27.00;24.00;;;;;;;;5098960;27;46355;-71
2022/08/25 04:43:30;;;;;;;;;32.67;26.67;;;;;;;;5099895;27;45306;-71
2022/08/25 04:45:55;;;;;;;;;28.00;25.67;;;;;;;;5099906;27;45375;-71
2022/08/25 04:48:21;;;;;;;;;24.33;22.67;;;;;;;;5100521;27;45326;-71
2022/08/25 04:50:46;;;;;;;;;26.00;24.33;;;;;;;;5099801;27;46189;-72
2022/08/25 04:53:11;;;;;;;;;20.33;20.33;;;;;;;;5099910;27;45345;-72
2022/08/25 04:55:45;;;;;;;;;27.33;24.00;;;;;;;;5099968;27;45433;-72
2022/08/25 04:58:11;;;;;;;;;22.67;22.67;;;;;;;;5099613;27;45686;-71
2022/08/25 05:00:36;;;;;;;;;35.00;30.67;;;;;;;;5099648;27;46080;-72
2022/08/25 05:03:02;;;;;;;;;24.67;22.67;;;;;;;;5099640;27;45359;-72
2022/08/25 05:05:27;;;;;;;;;34.00;32.67;;;;;;;;5100019;27;45293;-72
2022/08/25 05:07:53;;;;;;;;;32.33;27.67;;;;;;;;5099884;27;45345;-72
2022/08/25 05:10:19;;;;;;;;;28.67;26.67;;;;;;;;5099415;27;45266;-72
2022/08/25 05:12:44;;;;;;;;;22.00;22.00;;;;;;;;5099689;27;45214;-72
2022/08/25 05:17:53;;;;;;;;;30.67;27.67;;;;;;;;5079139;28;45314;-71
2022/08/25 05:20:19;;;;;;;;;27.00;27.00;;;;;;;;5078764;28;46460;-71
2022/08/25 05:22:45;;;;;;;;;23.33;23.33;;;;;;;;5078658;28;45562;-71
2022/08/25 05:25:10;;;;;;;;;25.33;25.00;;;;;;;;5079077;28;45346;-71
2022/08/25 05:27:36;;;;;;;;;23.33;20.67;;;;;;;;5079149;28;45364;-72
2022/08/25 05:30:01;;;;;;;;;21.67;20.00;;;;;;;;5079384;27;45355;-72
2022/08/25 05:32:26;;;;;;;;;20.00;20.00;;;;;;;;5099417;27;45348;-72
2022/08/25 05:34:51;;;;;;;;;21.33;20.33;;;;;;;;5099267;27;45291;-72
2022/08/25 05:37:16;;;;;;;;;22.67;19.67;;;;;;;;5099204;27;45287;-72
2022/08/25 05:39:42;;;;;;;;;20.00;18.67;;;;;;;;5098814;27;45529;-71
2022/08/25 05:42:07;;;;;;;;;19.33;18.33;;;;;;;;5099178;27;45292;-71
2022/08/25 05:44:32;;;;;;;;;19.33;18.33;;;;;;;;5099281;27;45368;-71
2022/08/25 05:46:58;;;;;;;;;21.00;19.00;;;;;;;;5098050;27;45368;-72
2022/08/25 05:49:23;;;;;;;;;16.67;16.67;;;;;;;;5098900;27;46173;-71
2022/08/25 05:51:48;;;;;;;;;17.67;14.33;;;;;;;;5099040;27;45483;-71
2022/08/25 05:54:13;;;;;;;;;16.33;14.67;;;;;;;;5098886;27;45421;-71
2022/08/25 05:56:39;;;;;;;;;17.33;14.67;;;;;;;;5099275;27;45354;-71
2022/08/25 05:59:04;;;;;;;;;16.00;16.00;;;;;;;;5098787;27;46319;-72
2022/08/25 06:04:21;;;;;;;;;10.00;9.00;;;;;;;;5098099;27;45299;-71
2022/08/25 06:06:47;;;;;;;;;12.67;11.67;;;;;;;;5098908;27;45544;-71
2022/08/25 06:09:13;;;;;;;;;12.00;12.00;;;;;;;;5098363;27;45351;-71
2022/08/25 06:11:39;;;;;;;;;15.00;13.33;;;;;;;;5098861;27;45310;-71
2022/08/25 06:14:05;;;;;;;;;16.67;14.33;;;;;;;;5098789;27;45489;-72
2022/08/25 06:16:30;;;;;;;;;19.00;18.33;;;;;;;;5098469;27;45286;-71
2022/08/25 06:18:55;;;;;;;;;11.67;11.67;;;;;;;;5098531;27;47404;-72
2022/08/25 06:21:21;;;;;;;;;13.33;13.33;;;;;;;;5097779;27;45165;-72
2022/08/25 06:23:48;;;;;;;;;15.33;12.00;;;;;;;;5098018;27;45368;-72
2022/08/25 06:26:14;;;;;;;;;13.67;12.00;;;;;;;;5098748;27;45522;-72
2022/08/25 06:28:39;;;;;;;;;15.00;12.00;;;;;;;;5098202;27;45461;-72
2022/08/25 06:31:04;;;;;;;;;12.00;11.67;;;;;;;;5098445;27;45501;-72
2022/08/25 06:33:30;;;;;;;;;18.67;15.67;;;;;;;;5098374;27;45220;-72
2022/08/25 06:35:55;;;;;;;;;17.67;17.67;;;;;;;;5098764;27;45232;-72
2022/08/25 06:38:21;;;;;;;;;16.67;16.67;;;;;;;;5097199;27;45486;-72
2022/08/25 06:40:47;;;;;;;;;13.00;13.00;;;;;;;;5098264;27;45319;-72
2022/08/25 06:43:13;;;;;;;;;14.67;12.33;;;;;;;;5098542;27;45349;-72
2022/08/25 06:45:38;;;;;;;;;16.67;14.33;;;;;;;;5098391;27;45306;-72
2022/08/25 06:48:03;;;;;;;;;13.33;13.00;;;;;;;;5098173;27;46345;-72
2022/08/25 06:50:28;;;;;;;;;17.67;13.33;;;;;;;;5097018;27;45402;-72
2022/08/25 06:52:54;;;;;;;;;17.33;15.33;;;;;;;;5097395;27;45327;-72
2022/08/25 06:55:19;;;;;;;;;11.00;10.00;;;;;;;;5098209;27;45419;-73
2022/08/25 06:57:44;;;;;;;;;10.67;10.67;;;;;;;;5097850;27;46648;-72
2022/08/25 07:00:10;;;;;;;;;17.67;13.00;;;;;;;;5098092;27;45333;-73
2022/08/25 07:02:37;;;;;;;;;10.33;10.33;;;;;;;;5098162;27;45425;-72
2022/08/25 07:05:03;;;;;;;;;14.00;14.00;;;;;;;;5098268;27;45582;-72
2022/08/25 07:07:28;;;;;;;;;13.00;12.00;;;;;;;;5097788;27;47044;-73
2022/08/25 07:09:53;;;;;;;;;11.00;11.00;;;;;;;;5081222;27;45513;-73
2022/08/25 07:12:19;;;;;;;;;12.33;12.33;;;;;;;;5077739;28;45457;-72
2022/08/25 07:14:44;;;;;;;;;9.33;9.33;;;;;;;;5077751;28;45402;-72
2022/08/25 07:17:09;;;;;;;;;12.00;11.00;;;;;;;;5077102;28;47418;-75
2022/08/25 07:19:35;;;;;;;;;14.00;12.33;;;;;;;;5077365;28;45395;-74
2022/08/25 07:22:00;;;;;;;;;11.00;10.00;;;;;;;;5077187;28;45358;-74
2022/08/25 07:24:25;;;;;;;;;10.33;10.33;;;;;;;;5077511;28;45616;-75
2022/08/25 07:26:51;;;;;;;;;11.67;10.67;;;;;;;;5090857;27;46596;-74
2022/08/25 07:29:21;;;;;;;;;12.00;11.33;;;;;;;;5097665;27;45407;-74
2022/08/25 07:31:46;;;;;;;;;11.67;11.67;;;;;;;;5097670;27;45395;-74
2022/08/25 07:36:55;;;;;;;;;14.33;13.33;;;;;;;;5097409;27;45867;-74
2022/08/25 07:39:22;;;;;;;;;12.33;11.33;;;;;;;;5097452;27;45273;-73
2022/08/25 07:41:47;;;;;;;;;11.00;9.33;;;;;;;;5096685;27;45464;-74
2022/08/25 07:44:13;;;;;;;;;11.33;10.33;;;;;;;;5097605;27;45223;-75
2022/08/25 07:46:38;;;;;;;;;9.67;9.67;;;;;;;;5097291;27;46581;-75
2022/08/25 07:49:04;;;;;;;;;12.00;10.00;;;;;;;;5097283;27;45299;-74
2022/08/25 07:51:29;;;;;;;;;12.33;10.00;;;;;;;;5097610;27;45405;-75
2022/08/25 07:53:55;;;;;;;;;8.33;8.33;;;;;;;;5097642;27;45166;-75
2022/08/25 07:56:20;;;;;;;;;12.33;10.67;;;;;;;;5101556;27;46364;-74
2022/08/25 07:58:46;;;;;;;;;9.33;8.00;;;;;;;;5077507;27;45451;-75
2022/08/25 08:01:19;;;;;;;;;10.67;10.00;;;;;;;;5098349;27;45302;-74
2022/08/25 08:03:44;;;;;;;;;11.00;11.00;;;;;;;;5101092;27;45570;-75
2022/08/25 08:06:11;;;;;;;;;12.67;11.67;;;;;;;;5100577;27;46149;-74
2022/08/25 08:08:37;;;;;;;;;10.00;10.00;;;;;;;;5100695;27;45235;-75
2022/08/25 08:11:02;;;;;;;;;7.00;7.00;;;;;;;;5100548;27;45434;-74
2022/08/25 08:13:27;;;;;;;;;10.67;10.67;;;;;;;;5099867;27;45272;-74
2022/08/25 08:15:52;;;;;;;;;10.00;10.00;;;;;;;;5100466;27;45377;-73
2022/08/25 08:18:18;;;;;;;;;13.50;11.00;;;;;;;;5100544;27;45414;-74
2022/08/25 08:20:47;;;;;;;;;10.33;10.33;;;;;;;;5100536;27;45477;-74
2022/08/25 08:23:13;;;;;;;;;10.33;8.67;;;;;;;;5100851;27;45339;-74
2022/08/25 08:25:38;;;;;;;;;10.67;10.67;;;;;;;;5100053;27;45580;-73
2022/08/25 08:28:03;;;;;;;;;9.00;9.00;;;;;;;;5105317;27;45444;-72
2022/08/25 08:30:29;;;;;;;;;11.00;9.33;;;;;;;;5101305;27;45416;-73
2022/08/25 08:32:54;;;;;;;;;12.50;9.50;;;;;;;;5100587;27;45429;-71
2022/08/25 08:35:19;;;;;;;;;8.67;8.67;;;;;;;;5100171;27;45478;-73
2022/08/25 08:37:45;;;;;;;;;11.00;11.00;;;;;;;;5100145;27;45182;-73
2022/08/25 08:40:13;;;;;;;;;10.67;8.67;;;;;;;;5100198;27;45220;-68
2022/08/25 08:42:44;;;;;;;;;12.00;9.00;;;;;;;;5100391;27;45403;-69
2022/08/25 08:45:23;;;;;;;;;9.33;9.33;;;;;;;;5099785;27;47287;-71
2022/08/25 08:48:08;;;;;;;;;9.67;9.00;;;;;;;;5088315;27;45461;-71
2022/08/25 08:50:39;;;;;;;;;8.00;8.00;;;;;;;;5079752;28;45386;-71
2022/08/25 08:53:04;;;;;;;;;9.00;9.00;;;;;;;;5079743;28;45229;-74
2022/08/25 08:55:35;;;;;;;;;10.67;10.67;;;;;;;;5079162;28;45658;-72
2022/08/25 08:58:03;;;;;;;;;11.00;10.00;;;;;;;;5079639;28;45497;-76
2022/08/25 09:00:29;;;;;;;;;9.00;8.00;;;;;;;;5061376;28;45259;-72
2022/08/25 09:03:10;;;;;;;;;12.00;8.67;;;;;;;;5079440;28;45482;-71
2022/08/25 09:05:44;;;;;;;;;10.33;9.33;;;;;;;;5097645;27;47305;-69
2022/08/25 09:08:12;;;;;;;;;12.67;11.00;;;;;;;;5099525;27;45384;-75
2022/08/25 09:10:42;;;;;;;;;9.00;9.00;;;;;;;;5099535;27;45511;-78
2022/08/25 09:13:17;;;;;;;;;8.33;8.33;;;;;;;;5109994;27;45975;-75
2022/08/25 09:18:29;;;;;;;;;8.33;8.33;;;;;;;;5079247;28;45447;-74
2022/08/25 09:20:57;;;;;;;;;10.33;8.00;;;;;;;;5092939;27;45461;-76
2022/08/25 09:23:28;;;;;;;;;11.00;9.33;;;;;;;;5099553;27;45458;-75
2022/08/25 09:26:03;;;;;;;;;10.00;10.00;;;;;;;;5099255;27;46160;-75
2022/08/25 09:28:54;;;;;;;;;11.67;10.00;;;;;;;;5099298;27;45447;-76
2022/08/25 09:31:30;;;;;;;;;12.00;12.00;;;;;;;;5099471;27;45474;-75
2022/08/25 09:33:56;;;;;;;;;11.00;11.00;;;;;;;;5099381;27;45231;-75
2022/08/25 09:36:22;;;;;;;;;13.00;12.00;;;;;;;;5098194;27;46203;-75
2022/08/25 09:38:47;;;;;;;;;10.33;9.00;;;;;;;;5098388;27;45456;-76
2022/08/25 09:41:15;;;;;;;;;11.00;11.00;;;;;;;;5099220;27;45310;-75
2022/08/25 09:43:41;;;;;;;;;11.00;11.00;;;;;;;;5099308;27;45533;-76
2022/08/25 09:46:06;;;;;;;;;13.00;12.00;;;;;;;;5098792;27;47491;-77
2022/08/25 09:48:36;;;;;;;;;13.33;10.67;;;;;;;;5099024;27;45228;-76
2022/08/25 09:51:22;;;;;;;;;10.33;10.33;;;;;;;;5098260;27;45307;-77
2022/08/25 09:53:49;;;;;;;;;11.00;11.00;;;;;;;;5084658;27;47308;-75
2022/08/25 09:56:18;;;;;;;;;10.67;8.67;;;;;;;;5098641;27;47102;-77
2022/08/25 09:58:43;;;;;;;;;11.67;11.67;;;;;;;;5098858;27;45375;-77
2022/08/25 10:01:16;;;;;;;;;11.00;10.00;;;;;;;;5098870;27;45226;-75
2022/08/25 10:03:53;;;;;;;;;11.00;9.67;;;;;;;;5098962;27;45454;-76
2022/08/25 10:06:19;;;;;;;;;13.33;11.67;;;;;;;;5097553;27;46738;-77
2022/08/25 10:08:44;;;;;;;;;14.67;12.00;;;;;;;;5098523;27;45309;-75
2022/08/25 10:11:14;;;;;;;;;14.00;12.67;;;;;;;;5098447;27;45555;-77
2022/08/25 10:13:39;;;;;;;;;14.33;10.67;;;;;;;;5098869;27;45390;-75
2022/08/25 10:16:08;;;;;;;;;15.00;14.67;;;;;;;;5097564;27;45348;-77
2022/08/25 10:18:33;;;;;;;;;11.33;11.33;;;;;;;;5098480;27;45395;-77
2022/08/25 10:21:03;;;;;;;;;15.00;13.33;;;;;;;;5097667;27;45312;-77
2022/08/25 10:23:30;;;;;;;;;16.00;12.67;;;;;;;;5098568;27;45728;-77
2022/08/25 10:25:57;;;;;;;;;14.67;13.00;;;;;;;;5098201;27;47041;-76
2022/08/25 10:28:41;;;;;;;;;15.33;14.00;;;;;;;;5098460;27;45258;-75
2022/08/25 10:31:06;;;;;;;;;11.00;10.00;;;;;;;;5098584;27;45289;-75
2022/08/25 10:33:44;;;;;;;;;16.75;16.00;;;;;;;;5098502;27;45199;-76
2022/08/25 10:36:12;;;;;;;;;16.00;15.75;;;;;;;;5098223;27;46257;-76
2022/08/25 10:38:44;;;;;;;;;12.75;10.75;;;;;;;;5097166;27;45251;-75
2022/08/25 10:41:25;;;;;;;;;15.00;13.50;;;;;;;;5098248;27;45410;-75
2022/08/25 10:45:41;;;;;;;;;12.25;10.25;;;;;;;;5098314;27;45391;-76
2022/08/25 10:47:14;;;;;;;;;13.00;13.00;;;;;;;;5097764;27;46801;-75
2022/08/25 10:50:02;;;;;;;;;17.50;14.50;;;;;;;;5083386;27;45514;-78
2022/08/25 10:52:27;;;;;;;;;9.25;9.25;;;;;;;;5098102;27;45263;-77
2022/08/25 10:55:22;;;;;;;;;17.00;16.00;;;;;;;;5097234;27;45306;-76
2022/08/25 10:57:55;;;;;;;;;16.75;15.00;;;;;;;;5079804;27;45541;-76
2022/08/25 11:00:22;;;;;;;;;18.00;16.50;;;;;;;;5097987;27;45401;-77
2022/08/25 11:02:53;;;;;;;;;16.25;16.25;;;;;;;;5097980;27;45365;-76
2022/08/25 11:05:24;;;;;;;;;21.00;21.00;;;;;;;;5098045;27;45340;-75
2022/08/25 11:07:52;;;;;;;;;28.75;28.00;;;;;;;;5097935;27;45335;-76
2022/08/25 11:10:44;;;;;;;;;29.00;26.75;;;;;;;;5096703;27;45381;-75
2022/08/25 11:13:12;;;;;;;;;21.00;21.00;;;;;;;;5093685;27;45398;-77
2022/08/25 11:15:41;;;;;;;;;31.50;26.75;;;;;;;;5097911;27;45393;-76
2022/08/25 11:18:09;;;;;;;;;28.50;25.75;;;;;;;;5097592;27;45745;-76
2022/08/25 11:20:41;;;;;;;;;32.00;28.75;;;;;;;;5097804;27;45251;-75
2022/08/25 11:23:21;;;;;;;;;30.50;25.50;;;;;;;;5097681;27;45549;-75
2022/08/25 11:25:50;;;;;;;;;32.25;26.00;;;;;;;;5097747;27;45539;-75
2022/08/25 11:28:29;;;;;;;;;24.25;22.75;;;;;;;;5096617;27;46192;-77
2022/08/25 11:30:56;;;;;;;;;23.00;23.00;;;;;;;;5097625;27;45355;-76
2022/08/25 11:33:23;;;;;;;;;28.00;25.00;;;;;;;;5097728;27;45429;-75
2022/08/25 11:35:49;;;;;;;;;27.00;24.50;;;;;;;;5098276;27;45257;-75
2022/08/25 11:38:18;;;;;;;;;23.00;22.75;;;;;;;;5100899;27;47257;-76
2022/08/25 11:40:49;;;;;;;;;28.00;25.75;;;;;;;;5100844;27;45339;-77
2022/08/25 11:43:14;;;;;;;;;30.25;28.25;;;;;;;;5100136;27;45252;-76
2022/08/25 11:45:52;;;;;;;;;28.50;24.00;;;;;;;;5101082;27;45284;-77
2022/08/25 11:48:29;;;;;;;;;26.33;24.67;;;;;;;;5100772;27;46397;-76
2022/08/25 11:51:00;;;;;;;;;29.50;27.75;;;;;;;;5100675;27;45351;-76
2022/08/25 11:53:27;;;;;;;;;21.67;19.33;;;;;;;;5101083;27;45311;-75
2022/08/25 11:56:01;;;;;;;;;32.50;29.25;;;;;;;;5100729;27;45481;-76
2022/08/25 11:58:30;;;;;;;;;18.33;17.33;;;;;;;;5099644;27;47523;-76
2022/08/25 12:00:57;;;;;;;;;23.67;23.00;;;;;;;;5100850;27;45158;-76
2022/08/25 12:03:31;;;;;;;;;34.00;27.33;;;;;;;;5100600;27;45466;-76
2022/08/25 12:06:17;;;;;;;;;26.33;26.33;;;;;;;;5100882;27;45371;-75
2022/08/25 12:08:53;;;;;;;;;25.33;23.33;;;;;;;;5100421;27;45451;-76
2022/08/25 12:11:36;;;;;;;;;26.00;24.00;;;;;;;;5100316;27;45370;-76
2022/08/25 12:14:15;;;;;;;;;19.00;18.50;;;;;;;;5100738;27;45497;-75
2022/08/25 12:16:40;;;;;;;;;22.33;21.67;;;;;;;;5099495;27;45435;-77
2022/08/25 12:19:25;;;;;;;;;22.33;20.67;;;;;;;;5100234;27;46415;-77
2022/08/25 12:21:51;;;;;;;;;19.33;18.33;;;;;;;;5100222;27;45293;-76
2022/08/25 12:24:19;;;;;;;;;17.33;16.00;;;;;;;;5100565;27;45289;-76
2022/08/25 12:26:53;;;;;;;;;20.67;12.67;;;;;;;;5100342;27;45244;-76
2022/08/25 12:29:41;;;;;;;;;15.00;13.00;;;;;;;;5100267;27;46574;-76
2022/08/25 12:32:09;;;;;;;;;14.67;14.67;;;;;;;;5100174;27;45350;-76
2022/08/25 12:34:43;;;;;;;;;12.67;11.33;;;;;;;;5099300;27;45301;-77
2022/08/25 12:37:12;;;;;;;;;15.00;13.00;;;;;;;;5100298;27;45437;-77
2022/08/25 12:39:50;;;;;;;;;13.67;11.67;;;;;;;;5099999;27;46003;-77
2022/08/25 12:42:28;;;;;;;;;15.67;14.67;;;;;;;;5099937;27;45245;-76
2022/08/25 12:45:15;;;;;;;;;17.00;13.00;;;;;;;;5100211;27;45291;-76
2022/08/25 12:47:43;;;;;;;;;13.33;13.33;;;;;;;;5099067;27;45363;-77
2022/08/25 12:50:26;;;;;;;;;12.67;11.67;;;;;;;;5098742;27;45689;-76
2022/08/25 12:52:54;;;;;;;;;13.67;13.67;;;;;;;;5099820;27;45241;-76
2022/08/25 12:55:21;;;;;;;;;15.33;12.00;;;;;;;;5099896;27;45441;-76
2022/08/25 12:57:56;;;;;;;;;13.33;13.33;;;;;;;;5099946;27;45330;-77
2022/08/25 13:00:23;;;;;;;;;13.00;11.33;;;;;;;;5099585;27;46408;-77
2022/08/25 13:02:55;;;;;;;;;15.00;13.67;;;;;;;;5099879;27;45387;-76
2022/08/25 13:05:29;;;;;;;;;13.00;12.00;;;;;;;;5099958;27;45192;-75
2022/08/25 13:07:57;;;;;;;;;15.00;11.33;;;;;;;;5098975;27;45318;-76
2022/08/25 13:10:25;;;;;;;;;12.33;12.33;;;;;;;;5099491;27;45540;-75
2022/08/25 13:13:03;;;;;;;;;15.00;15.00;;;;;;;;5099614;27;45330;-76
2022/08/25 13:15:34;;;;;;;;;14.33;13.33;;;;;;;;5099683;27;45322;-77
2022/08/25 13:18:12;;;;;;;;;18.33;16.00;;;;;;;;5099411;27;45532;-76
2022/08/25 13:20:38;;;;;;;;;15.67;14.00;;;;;;;;5099202;27;46587;-78
2022/08/25 13:23:03;;;;;;;;;13.00;13.00;;;;;;;;5099393;27;45300;-76
2022/08/25 13:25:28;;;;;;;;;13.67;13.00;;;;;;;;5091306;27;45414;-76
2022/08/25 13:27:55;;;;;;;;;16.33;14.33;;;;;;;;5079145;28;45455;-77
2022/08/25 13:30:32;;;;;;;;;16.67;16.33;;;;;;;;5078886;28;46412;-76
2022/08/25 13:32:58;;;;;;;;;15.67;15.67;;;;;;;;5078785;28;45530;-77
2022/08/25 13:35:31;;;;;;;;;13.33;13.33;;;;;;;;5078956;28;45446;-76
2022/08/25 13:38:12;;;;;;;;;19.00;14.33;;;;;;;;5078837;28;45454;-76
2022/08/25 13:40:38;;;;;;;;;15.67;11.00;;;;;;;;5078841;27;46704;-76
2022/08/25 13:43:05;;;;;;;;;15.00;13.00;;;;;;;;5098858;27;45356;-76
2022/08/25 13:45:35;;;;;;;;;14.00;13.00;;;;;;;;5099386;27;45444;-75
2022/08/25 13:48:00;;;;;;;;;14.67;14.67;;;;;;;;5099205;27;45604;-76
2022/08/25 13:50:25;;;;;;;;;14.00;12.67;;;;;;;;5098824;27;45432;-76
2022/08/25 13:53:11;;;;;;;;;13.33;12.00;;;;;;;;5099213;27;45449;-75
2022/08/25 13:55:37;;;;;;;;;14.67;10.33;;;;;;;;5099229;27;45318;-75
2022/08/25 13:58:03;;;;;;;;;10.00;10.00;;;;;;;;5097971;27;46054;-76
2022/08/25 14:00:33;;;;;;;;;15.67;11.00;;;;;;;;5098385;27;45277;-77
2022/08/25 14:02:59;;;;;;;;;10.00;10.00;;;;;;;;5098660;27;45446;-77
2022/08/25 14:05:44;;;;;;;;;13.00;13.00;;;;;;;;5098701;27;45312;-76
2022/08/25 14:08:30;;;;;;;;;10.33;8.67;;;;;;;;5098865;27;45344;-77
2022/08/25 14:11:07;;;;;;;;;11.00;10.67;;;;;;;;5098293;27;46291;-77
2022/08/25 14:13:33;;;;;;;;;11.33;9.33;;;;;;;;5097482;27;45505;-75
2022/08/25 14:16:18;;;;;;;;;11.33;10.33;;;;;;;;5098520;27;45187;-77
2022/08/25 14:18:51;;;;;;;;;8.00;6.67;;;;;;;;5098976;27;45227;-76
2022/08/25 14:21:17;;;;;;;;;6.33;6.33;;;;;;;;5095133;27;47886;-77
2022/08/25 14:23:43;;;;;;;;;10.67;9.00;;;;;;;;5098501;27;45203;-77
2022/08/25 14:26:08;;;;;;;;;5.67;5.67;;;;;;;;5098658;27;45464;-76
2022/08/25 14:28:33;;;;;;;;;6.67;6.67;;;;;;;;5098779;27;45602;-76
2022/08/25 14:31:07;;;;;;;;;10.00;7.67;;;;;;;;5097262;27;46550;-77
2022/08/25 14:33:36;;;;;;;;;5.67;5.00;;;;;;;;5098403;27;45318;-76
2022/08/25 14:36:03;;;;;;;;;6.00;6.00;;;;;;;;5098550;27;45377;-77
2022/08/25 14:38:28;;;;;;;;;4.33;4.33;;;;;;;;5098560;27;45536;-76